Table Rock, Nebraska
Current Conditions -  °F | °C
As of 2:02 PM on Sunday 25 Jan 2015 (Local Time) from KFNB Reporting Station
Overcast Overcast  
Wind Chill: -1°   Ceiling: 1500
Heat Index:   Visibility: 10mi
Dew Point:   Wind: 16mph
Humidity: 79%   Direction: 350°N
Pressure: 29.97"   Gusts: 25mph
Location:  40.18°N, 96.1°W
Report Text: KFNB 252002Z AUTO 35014G22KT 10SM BKN015 OVC022 04/01 A2997 RMK AO2 T00390006
Loading
Personal Weather Stations






























Interactive Weather Map New forecast layout! Learn more

10-Day Weather Forecast

Advertisements
Track Severe Weather on mobile